Time;durP1;ratioP1;P1;durP2;ratioP2;P2;SDS_P1;SDS_P2;PMS_P1;PMS_P2;Temp;Humidity;BMP_temperature;BMP_pressure;BME280_temperature;BME280_humidity;BME280_pressure;Samples;Min_cycle;Max_cycle;Signal;HPM_P1;HPM_P2
2022/11/02 00:02:26;;;;;;;20.20;14.45;;;;;;;13.69;85.84;101380.69;1740885;81;21542;-91
2022/11/02 00:04:53;;;;;;;18.50;13.93;;;;;;;13.68;85.81;101380.65;1740369;82;21060;-90
2022/11/02 00:07:20;;;;;;;16.75;12.00;;;;;;;13.65;85.79;101382.80;1740448;81;21125;-90
2022/11/02 00:09:47;;;;;;;18.40;13.25;;;;;;;13.64;85.83;101384.97;1740110;81;21731;-90
2022/11/02 00:12:15;;;;;;;18.17;14.03;;;;;;;13.64;85.83;101387.62;1743981;82;21626;-90
2022/11/02 00:14:42;;;;;;;26.52;17.07;;;;;;;13.64;85.83;101389.37;1747577;80;21113;-90
2022/11/02 00:17:09;;;;;;;28.20;22.32;;;;;;;13.63;85.83;101388.91;1749282;81;21046;-90
2022/11/02 00:19:35;;;;;;;22.70;16.20;;;;;;;13.62;85.73;101395.95;1749025;81;21152;-90
2022/11/02 00:22:02;;;;;;;17.73;13.53;;;;;;;13.58;85.78;101400.27;1749200;81;21806;-89
2022/11/02 00:24:31;;;;;;;19.32;13.65;;;;;;;13.57;85.80;101399.83;1748858;81;21062;-88
2022/11/02 00:26:58;;;;;;;19.30;12.63;;;;;;;13.55;85.78;101399.31;1748464;81;21121;-89
2022/11/02 00:29:24;;;;;;;17.70;11.43;;;;;;;13.52;85.75;101393.53;1748228;81;21117;-88
2022/11/02 00:31:53;;;;;;;15.72;9.13;;;;;;;13.53;85.83;101397.06;1748605;81;20974;-91
2022/11/02 00:34:20;;;;;;;11.55;9.20;;;;;;;13.52;85.82;101395.30;1685667;84;21526;-90
2022/11/02 00:36:47;;;;;;;14.40;9.30;;;;;;;13.51;85.84;101399.66;1748788;81;21678;-90
2022/11/02 00:39:13;;;;;;;19.12;11.08;;;;;;;13.49;85.79;101396.53;1688794;84;21055;-90
2022/11/02 00:41:40;;;;;;;13.35;10.15;;;;;;;13.48;85.89;101396.97;1712740;83;21149;-90
2022/11/02 00:44:07;;;;;;;17.00;10.98;;;;;;;13.47;85.79;101393.84;1751835;81;21036;-90
2022/11/02 00:46:34;;;;;;;13.30;10.00;;;;;;;13.45;85.83;101395.56;1739822;81;21755;-89
2022/11/02 00:49:01;;;;;;;14.25;10.45;;;;;;;13.45;85.85;101406.14;1724604;82;21583;-90
2022/11/02 00:51:28;;;;;;;15.65;11.00;;;;;;;13.44;85.90;101409.66;1709992;83;21085;-90
2022/11/02 00:53:54;;;;;;;13.05;9.80;;;;;;;13.43;85.90;101415.80;1751750;81;21077;-89
2022/11/02 00:56:21;;;;;;;16.20;10.68;;;;;;;13.39;85.89;101413.50;1767649;81;21627;-91
2022/11/02 00:58:48;;;;;;;19.67;12.68;;;;;;;13.40;85.89;101415.30;1738647;81;21756;-90
2022/11/02 01:01:15;;;;;;;17.05;11.43;;;;;;;13.39;85.83;101417.91;1735482;82;21041;-90
2022/11/02 01:03:42;;;;;;;21.48;15.18;;;;;;;13.36;85.87;101416.09;1735012;82;21043;-90
2022/11/02 01:06:12;;;;;;;19.57;13.43;;;;;;;13.35;85.88;101420.02;1735309;82;21542;-90
2022/11/02 01:08:39;;;;;;;19.95;12.50;;;;;;;13.35;85.92;101423.98;1735138;81;21055;-90
2022/11/02 01:11:16;;;;;;;26.93;18.32;;;;;;;13.34;85.94;101423.06;1749243;81;21851;-90
2022/11/02 01:13:43;;;;;;;26.00;19.00;;;;;;;13.33;85.94;101421.30;1754383;79;21305;-90
2022/11/02 01:16:10;;;;;;;17.27;13.88;;;;;;;13.31;85.96;101422.12;1716354;83;21086;-89
2022/11/02 01:18:36;;;;;;;23.83;13.88;;;;;;;13.30;85.96;101421.20;1742601;82;21049;-89
2022/11/02 01:21:03;;;;;;;20.17;13.80;;;;;;;13.29;85.96;101423.37;1716203;83;21505;-88
2022/11/02 01:23:34;;;;;;;18.07;13.18;;;;;;;13.27;85.90;101421.12;1742536;82;21725;-90
2022/11/02 01:26:05;;;;;;;14.70;11.20;;;;;;;13.23;85.87;101422.79;1716035;83;21098;-89
2022/11/02 01:28:32;;;;;;;18.55;12.88;;;;;;;13.17;85.75;101424.38;1741934;82;21054;-89
2022/11/02 01:30:59;;;;;;;22.00;13.95;;;;;;;13.09;85.77;101422.86;1717407;83;21080;-89
2022/11/02 01:33:26;;;;;;;23.38;14.25;;;;;;;13.02;85.72;101420.91;1759276;80;21048;-88
2022/11/02 01:35:53;;;;;;;19.35;14.60;;;;;;;12.94;85.76;101419.39;1743952;81;21726;-89
2022/11/02 01:38:20;;;;;;;21.23;14.85;;;;;;;12.87;85.77;101423.16;1759235;80;21064;-89
2022/11/02 01:40:47;;;;;;;18.05;13.65;;;;;;;12.79;85.75;101419.87;1759324;80;21059;-89
2022/11/02 01:43:27;;;;;;;18.35;13.13;;;;;;;12.72;85.73;101415.72;1759142;81;21061;-90
2022/11/02 01:46:11;;;;;;;16.12;12.70;;;;;;;12.66;85.82;101421.73;1759292;79;21292;-89
2022/11/02 01:48:53;;;;;;;20.23;14.25;;;;;;;12.57;85.77;101418.83;1758834;81;21715;-89
2022/11/02 01:51:34;;;;;;;18.75;13.62;;;;;;;12.45;85.73;101411.04;1759287;81;21094;-90
2022/11/02 01:54:11;;;;;;;27.90;15.18;;;;;;;12.36;85.73;101416.06;1724341;81;21519;-90
2022/11/02 01:56:39;;;;;;;25.25;16.55;;;;;;;12.28;85.81;101423.31;1724803;83;21058;-89
2022/11/02 01:59:10;;;;;;;19.70;15.50;;;;;;;12.17;85.87;101415.96;1722735;83;21247;-89
2022/11/02 02:01:37;;;;;;;27.22;17.35;;;;;;;12.09;85.96;101409.58;1714665;83;21809;-90
2022/11/02 02:04:04;;;;;;;21.33;16.95;;;;;;;12.01;85.95;101413.71;1714689;83;21046;-90
2022/11/02 02:06:31;;;;;;;26.93;16.67;;;;;;;11.92;85.97;101416.07;1716355;83;21074;-90
2022/11/02 02:08:59;;;;;;;25.20;16.35;;;;;;;11.84;86.12;101406.58;1724815;83;21143;-89
2022/11/02 02:11:32;;;;;;;22.17;17.20;;;;;;;11.79;86.11;101415.69;1720865;83;21682;-90
2022/11/02 02:14:07;;;;;;;24.10;16.65;;;;;;;11.70;86.11;101415.40;1714849;83;23065;-89
2022/11/02 02:16:56;;;;;;;23.57;15.68;;;;;;;11.60;86.11;101408.03;1714715;83;21051;-88
2022/11/02 02:20:03;;;;;;;22.67;16.57;;;;;;;11.54;86.14;101407.84;1714790;83;21098;-89
2022/11/02 02:22:56;;;;;;;20.30;15.93;;;;;;;11.36;86.04;101394.56;1700112;83;21596;-89
2022/11/02 02:25:51;;;;;;;28.80;18.53;;;;;;;11.36;86.35;101402.47;1714335;82;21750;-88
2022/11/02 02:28:40;;;;;;;24.27;16.85;;;;;;;11.28;86.38;101414.09;1714725;83;21916;-89
2022/11/02 02:31:21;;;;;;;28.83;17.17;;;;;;;11.19;86.45;101412.89;1714658;83;21105;-90
2022/11/02 02:33:56;;;;;;;26.90;17.57;;;;;;;11.14;86.54;101419.31;1714670;83;21102;-90
2022/11/02 02:36:52;;;;;;;25.10;16.93;;;;;;;11.08;86.59;101412.53;1714314;83;21540;-89
2022/11/02 02:39:45;;;;;;;31.33;21.70;;;;;;;11.03;86.51;101414.10;1713611;82;21568;-89
2022/11/02 02:42:29;;;;;;;26.45;18.27;;;;;;;10.93;86.45;101407.64;1735413;80;22167;-89
2022/11/02 02:45:19;;;;;;;29.70;20.57;;;;;;;10.87;86.57;101407.00;1735150;80;21624;-89
2022/11/02 02:48:00;;;;;;;24.57;20.95;;;;;;;10.80;86.60;101414.22;1736057;81;21101;-89
2022/11/02 02:50:31;;;;;;;32.85;27.58;;;;;;;10.73;86.62;101418.79;1724435;81;21751;-89
2022/11/02 02:52:58;;;;;;;44.50;35.90;;;;;;;10.67;86.71;101419.89;1705750;83;21124;-89
2022/11/02 02:55:28;;;;;;;60.90;50.70;;;;;;;10.63;86.76;101424.16;1726504;82;22774;-90
2022/11/02 02:57:55;;;;;;;73.95;58.73;;;;;;;10.59;86.82;101425.33;1726624;82;21003;-90
2022/11/02 03:00:22;;;;;;;76.10;64.17;;;;;;;10.56;86.84;101423.89;1730605;82;21567;-89
2022/11/02 03:03:01;;;;;;;76.37;62.25;;;;;;;10.53;86.90;101425.08;1730663;82;20991;-90
2022/11/02 03:05:35;;;;;;;74.87;58.08;;;;;;;10.48;86.85;101428.45;1725317;82;21097;-89
2022/11/02 03:08:07;;;;;;;61.63;53.17;;;;;;;10.43;86.77;101432.64;1725497;82;21822;-90
2022/11/02 03:10:54;;;;;;;57.05;47.43;;;;;;;10.38;86.83;101434.63;1724845;82;21066;-89
2022/11/02 03:13:41;;;;;;;46.15;37.15;;;;;;;10.32;86.84;101433.98;1718467;81;21044;-88
2022/11/02 03:16:29;;;;;;;43.52;35.73;;;;;;;10.28;86.90;101444.78;1696281;83;21122;-89
2022/11/02 03:19:07;;;;;;;41.80;33.75;;;;;;;10.22;86.84;101434.03;1696549;84;22788;-89
2022/11/02 03:21:41;;;;;;;37.93;28.00;;;;;;;10.14;86.80;101438.13;1695182;84;22539;-90
2022/11/02 03:24:21;;;;;;;34.75;27.35;;;;;;;10.08;86.91;101438.79;1696067;83;28862;-90
2022/11/02 03:27:23;;;;;;;34.18;26.80;;;;;;;10.02;86.80;101438.95;1695607;83;21080;-90
2022/11/02 03:30:07;;;;;;;33.45;23.22;;;;;;;9.97;86.97;101445.38;1695271;83;21730;-89
2022/11/02 03:32:40;;;;;;;;;;;;;;;9.91;87.01;101451.30;1698393;84;21025;-90
2022/11/02 03:35:33;;;;;;;24.12;16.52;;;;;;;9.86;87.06;101454.16;1696186;83;21673;-89
2022/11/02 03:38:07;;;;;;;21.65;16.77;;;;;;;9.83;87.13;101457.08;1643723;83;21110;-89
2022/11/02 03:40:37;;;;;;;24.25;15.68;;;;;;;9.84;87.47;101461.09;1705165;82;21004;-89
2022/11/02 03:43:04;;;;;;;26.68;15.83;;;;;;;9.89;87.90;101463.87;1720589;83;21408;-90
2022/11/02 03:45:35;;;;;;;23.47;15.10;;;;;;;9.80;88.20;101437.22;1720545;83;20997;-90
2022/11/02 03:48:05;;;;;;;26.95;15.40;;;;;;;10.08;88.40;101470.36;1701986;83;22659;-90
2022/11/02 03:50:32;;;;;;;20.82;13.68;;;;;;;10.17;88.52;101467.59;1695372;83;21054;-90
2022/11/02 03:53:31;;;;;;;25.60;15.03;;;;;;;10.23;88.48;101467.41;1695481;83;21065;-90
2022/11/02 03:56:03;;;;;;;25.45;13.98;;;;;;;10.26;88.34;101466.19;1695146;83;21544;-90
2022/11/02 03:58:29;;;;;;;22.90;14.35;;;;;;;10.25;88.17;101467.48;1685521;84;21085;-91
2022/11/02 04:01:00;;;;;;;27.25;14.70;;;;;;;10.23;88.06;101468.73;1689687;84;21763;-90
2022/11/02 04:03:27;;;;;;;23.67;13.80;;;;;;;10.18;87.95;101467.65;1689782;84;21106;-91
2022/11/02 04:05:54;;;;;;;23.60;13.43;;;;;;;10.15;87.94;101474.09;1689715;84;21073;-90
2022/11/02 04:08:33;;;;;;;22.25;14.53;;;;;;;10.14;88.00;101482.84;1694989;84;21073;-90
2022/11/02 04:16:30;;;;;;;29.02;14.93;;;;;;;10.23;88.51;101479.25;1689596;84;21160;-90
2022/11/02 04:25:14;;;;;;;26.75;13.62;;;;;;;10.35;88.73;101477.95;1689504;84;21066;-91
2022/11/02 04:26:55;;;;;;;22.20;14.13;;;;;;;10.42;88.56;101475.61;1689650;84;21967;-90
2022/11/02 04:29:22;;;;;;;23.85;13.40;;;;;;;10.47;88.65;101481.03;1689914;83;21054;-90
2022/11/02 04:31:50;;;;;;;22.93;12.95;;;;;;;10.52;88.71;101479.91;1689915;84;21085;-90
2022/11/02 04:34:16;;;;;;;18.77;13.38;;;;;;;10.55;88.61;101476.96;1689982;84;21049;-90
2022/11/02 04:36:43;;;;;;;21.07;14.23;;;;;;;10.58;88.57;101470.91;1689868;84;21117;-90
2022/11/02 04:39:10;;;;;;;21.87;13.43;;;;;;;10.55;88.23;101466.44;1689703;84;21721;-91
2022/11/02 04:41:42;;;;;;;21.00;14.85;;;;;;;10.49;88.04;101462.23;1689675;84;21080;-89
2022/11/02 04:44:10;;;;;;;23.32;15.03;;;;;;;10.43;87.87;101460.28;1689861;83;21579;-90
2022/11/02 04:46:37;;;;;;;21.62;14.93;;;;;;;10.37;87.83;101464.44;1689870;84;21090;-90
2022/11/02 04:49:04;;;;;;;24.37;14.85;;;;;;;10.30;87.80;101464.58;1694361;83;21071;-92
2022/11/02 04:51:31;;;;;;;23.95;15.28;;;;;;;10.25;87.77;101455.64;1695734;83;21781;-89
2022/11/02 04:53:58;;;;;;;21.48;14.33;;;;;;;10.17;87.73;101458.38;1695574;83;21484;-87
2022/11/02 04:56:26;;;;;;;23.45;15.15;;;;;;;10.09;87.69;101455.45;1695655;82;21046;-87
2022/11/02 04:58:55;;;;;;;20.77;14.70;;;;;;;10.03;87.75;101459.18;1696124;84;21117;-87
2022/11/02 05:01:24;;;;;;;24.00;15.80;;;;;;;9.98;87.87;101454.15;1691539;84;21018;-87
2022/11/02 05:03:51;;;;;;;21.27;15.45;;;;;;;9.93;87.93;101449.62;1695125;83;21695;-87
2022/11/02 05:06:19;;;;;;;25.25;15.00;;;;;;;9.89;87.98;101448.10;1687308;84;21016;-87
2022/11/02 05:08:46;;;;;;;24.27;14.73;;;;;;;9.86;88.04;101450.64;1697033;84;20996;-88
2022/11/02 05:11:13;;;;;;;22.27;15.20;;;;;;;9.82;88.01;101446.98;1695317;84;20978;-88
2022/11/02 05:13:39;;;;;;;21.33;15.10;;;;;;;9.78;88.01;101452.97;1690249;84;21066;-88
2022/11/02 05:16:09;;;;;;;19.00;14.40;;;;;;;9.74;88.04;101453.66;1696088;84;21838;-87
2022/11/02 05:18:36;;;;;;;22.98;15.93;;;;;;;9.69;88.07;101454.80;1695677;83;21086;-87
2022/11/02 05:21:03;;;;;;;23.20;15.05;;;;;;;9.66;88.12;101461.23;1695695;83;21262;-85
2022/11/02 05:23:30;;;;;;;20.32;15.68;;;;;;;9.62;88.15;101467.22;1695591;83;21506;-88
2022/11/02 05:26:02;;;;;;;24.90;15.85;;;;;;;9.58;88.21;101472.30;1695741;84;21086;-93
2022/11/02 05:28:28;;;;;;;21.07;17.05;;;;;;;9.56;88.29;101470.92;1695781;83;21769;-91
2022/11/02 05:30:58;;;;;;;26.55;16.60;;;;;;;9.52;88.34;101476.46;1695814;84;22165;-87
2022/11/02 05:33:25;;;;;;;23.30;16.65;;;;;;;9.50;88.43;101484.70;1695602;83;21086;-88
2022/11/02 05:35:54;;;;;;;22.07;17.12;;;;;;;9.48;88.57;101484.17;1685586;84;21070;-89
2022/11/02 05:38:22;;;;;;;23.85;16.73;;;;;;;9.46;88.66;101496.32;1695772;84;21086;-87
2022/11/02 05:40:55;;;;;;;24.98;16.52;;;;;;;9.45;88.83;101487.98;1695712;83;21753;-86
2022/11/02 05:43:22;;;;;;;22.55;16.30;;;;;;;9.45;88.93;101497.17;1696989;82;20995;-87
2022/11/02 05:45:58;;;;;;;21.30;17.23;;;;;;;9.44;88.94;101495.37;1696320;83;21493;-87
2022/11/02 05:48:25;;;;;;;26.45;16.95;;;;;;;9.43;89.02;101488.34;1714718;82;21113;-86
2022/11/02 05:51:02;;;;;;;25.10;16.85;;;;;;;9.42;89.01;101492.70;1729451;82;21477;-86
2022/11/02 05:53:36;;;;;;;23.27;16.45;;;;;;;9.42;89.08;101490.47;1756940;81;21772;-86
2022/11/02 05:56:02;;;;;;;23.07;17.50;;;;;;;9.41;89.16;101489.58;1765658;81;21176;-92
2022/11/02 05:58:29;;;;;;;22.32;16.90;;;;;;;9.41;89.21;101484.33;1765932;81;21073;-87
2022/11/02 06:01:01;;;;;;;25.72;17.00;;;;;;;9.41;89.19;101486.95;1729072;81;21089;-88
2022/11/02 06:03:28;;;;;;;23.07;17.25;;;;;;;9.42;89.25;101490.47;1729284;82;21081;-90
2022/11/02 06:05:58;;;;;;;22.70;17.20;;;;;;;9.42;89.26;101496.64;1779770;80;21772;-88
2022/11/02 06:08:27;;;;;;;27.62;17.85;;;;;;;9.45;89.32;101493.23;1781168;80;21402;-87
2022/11/02 06:10:54;;;;;;;23.67;18.23;;;;;;;9.46;89.33;101491.98;1747661;80;21505;-86
2022/11/02 06:13:22;;;;;;;27.82;17.45;;;;;;;9.48;89.41;101495.58;1747041;81;21423;-86
2022/11/02 06:15:49;;;;;;;24.60;18.15;;;;;;;9.52;89.46;101496.17;1725606;83;21086;-86
2022/11/02 06:18:15;;;;;;;24.18;18.30;;;;;;;9.54;89.44;101497.56;1745848;82;21731;-86
2022/11/02 06:20:42;;;;;;;27.13;17.85;;;;;;;9.58;89.43;101498.16;1724589;83;21534;-86
2022/11/02 06:23:10;;;;;;;25.00;19.52;;;;;;;9.61;89.41;101494.75;1744651;82;21070;-86
2022/11/02 06:25:37;;;;;;;26.85;18.90;;;;;;;9.64;89.34;101496.20;1724268;83;21130;-87
2022/11/02 06:28:04;;;;;;;27.82;18.82;;;;;;;9.66;89.40;101494.52;1745568;82;21062;-86
2022/11/02 06:30:31;;;;;;;27.52;19.75;;;;;;;9.69;89.34;101498.60;1724394;83;21767;-86
2022/11/02 06:32:58;;;;;;;27.98;20.32;;;;;;;9.72;89.36;101496.08;1745322;82;21050;-86
2022/11/02 06:35:24;;;;;;;26.97;19.80;;;;;;;9.74;89.32;101493.09;1724381;83;21066;-87
2022/11/02 06:37:51;;;;;;;23.25;18.50;;;;;;;9.76;89.28;101499.73;1745448;82;21067;-86
2022/11/02 06:40:18;;;;;;;28.12;19.55;;;;;;;9.80;89.33;101503.88;1724361;82;21076;-86
2022/11/02 06:42:45;;;;;;;26.27;20.12;;;;;;;9.82;89.29;101496.94;1724424;81;21733;-86
2022/11/02 06:45:12;;;;;;;28.02;20.90;;;;;;;9.86;89.33;101501.48;1724407;83;21960;-87
2022/11/02 06:47:40;;;;;;;32.98;22.27;;;;;;;9.91;89.40;101493.37;1726278;81;21571;-86
2022/11/02 06:50:07;;;;;;;28.30;20.10;;;;;;;9.97;89.36;101494.45;1734106;82;21054;-87
2022/11/02 06:52:34;;;;;;;25.70;19.20;;;;;;;10.02;89.36;101490.25;1769540;81;21071;-86
2022/11/02 06:55:01;;;;;;;27.22;19.62;;;;;;;10.08;89.44;101490.08;1767678;81;21739;-87
2022/11/02 06:57:27;;;;;;;24.45;18.48;;;;;;;10.15;89.51;101488.56;1710778;82;21035;-86
2022/11/02 06:59:55;;;;;;;27.02;19.00;;;;;;;10.23;89.57;101480.97;1701555;83;21085;-86
2022/11/02 07:02:21;;;;;;;21.17;17.02;;;;;;;10.34;89.64;101485.36;1714599;83;21086;-86
2022/11/02 07:04:48;;;;;;;21.70;17.45;;;;;;;10.45;89.80;101484.91;1714498;83;21086;-86
2022/11/02 07:07:15;;;;;;;22.30;17.37;;;;;;;10.58;89.81;101484.95;1714522;83;21797;-89
2022/11/02 07:09:42;;;;;;;22.85;16.87;;;;;;;10.72;89.81;101491.14;1714234;83;21050;-86
2022/11/02 07:12:09;;;;;;;25.27;17.25;;;;;;;10.83;89.80;101484.52;1714635;82;21585;-87
2022/11/02 07:14:36;;;;;;;23.32;18.50;;;;;;;10.96;89.76;101485.45;1714152;82;21114;-86
2022/11/02 07:17:03;;;;;;;22.55;17.02;;;;;;;10.85;89.54;101451.27;1714750;83;21114;-86
2022/11/02 07:19:29;;;;;;;21.85;17.37;;;;;;;11.15;89.47;101486.07;1714950;83;21780;-86
2022/11/02 07:21:56;;;;;;;25.75;17.50;;;;;;;11.23;89.31;101484.61;1714741;83;21169;-86
2022/11/02 07:24:23;;;;;;;23.47;17.10;;;;;;;11.29;89.21;101484.81;1715045;83;21050;-86
2022/11/02 07:26:50;;;;;;;21.73;16.90;;;;;;;11.33;89.08;101481.43;1715024;83;21087;-87
2022/11/02 07:29:17;;;;;;;22.65;15.95;;;;;;;11.40;89.10;101489.14;1714857;83;21071;-86
2022/11/02 07:31:44;;;;;;;24.82;16.42;;;;;;;11.45;89.08;101489.77;1714669;83;21803;-87
2022/11/02 07:34:12;;;;;;;22.62;17.87;;;;;;;11.53;89.07;101487.81;1714828;83;21995;-86
2022/11/02 07:36:39;;;;;;;24.87;17.02;;;;;;;11.56;88.95;101487.48;1714538;83;21130;-86
2022/11/02 07:39:06;;;;;;;22.45;16.27;;;;;;;11.60;88.90;101489.77;1714768;83;21042;-86
2022/11/02 07:41:33;;;;;;;22.85;16.27;;;;;;;11.64;88.86;101485.98;1714808;83;21669;-86
2022/11/02 07:44:00;;;;;;;21.35;16.50;;;;;;;11.69;88.81;101495.34;1714543;83;22465;-86
2022/11/02 07:46:27;;;;;;;21.02;15.03;;;;;;;11.74;88.73;101492.44;1714805;83;21063;-86
2022/11/02 07:48:54;;;;;;;18.57;15.60;;;;;;;11.76;88.71;101490.75;1717923;83;21054;-86
2022/11/02 07:51:21;;;;;;;19.87;15.18;;;;;;;11.80;88.67;101489.99;1719259;83;21086;-86
2022/11/02 07:53:48;;;;;;;18.65;14.35;;;;;;;11.87;88.71;101484.50;1703883;83;21082;-87
2022/11/02 07:56:15;;;;;;;20.30;14.28;;;;;;;11.92;88.71;101489.54;1703833;84;23196;-87
2022/11/02 07:58:42;;;;;;;19.25;14.68;;;;;;;11.97;88.72;101485.28;1704245;83;21537;-86
2022/11/02 08:01:09;;;;;;;20.10;14.70;;;;;;;12.04;88.80;101483.73;1713148;83;21070;-87
2022/11/02 08:03:36;;;;;;;19.62;15.48;;;;;;;12.11;88.76;101492.75;1712875;83;21061;-87
2022/11/02 08:06:03;;;;;;;18.37;16.02;;;;;;;12.15;88.75;101486.72;1670915;84;21078;-88
2022/11/02 08:08:29;;;;;;;18.55;15.45;;;;;;;12.21;88.75;101485.57;1688264;84;22597;-87
2022/11/02 08:11:04;;;;;;;18.60;14.38;;;;;;;12.24;88.57;101489.63;1659001;86;21553;-87
2022/11/02 08:13:31;;;;;;;17.55;14.60;;;;;;;12.26;88.35;101485.30;1693999;84;21610;-88
2022/11/02 08:15:57;;;;;;;21.17;14.18;;;;;;;12.28;88.30;101486.66;1694173;84;21633;-88
2022/11/02 08:18:27;;;;;;;18.92;15.78;;;;;;;12.31;88.26;101484.09;1664776;85;21067;-88
2022/11/02 08:20:55;;;;;;;20.17;15.25;;;;;;;12.33;88.22;101482.39;1721816;83;22637;-87
2022/11/02 08:23:22;;;;;;;21.33;13.55;;;;;;;12.33;88.08;101485.95;1699852;84;21061;-88
2022/11/02 08:25:49;;;;;;;17.75;13.98;;;;;;;12.32;87.85;101489.86;1694692;84;21119;-87
2022/11/02 08:28:25;;;;;;;15.90;12.88;;;;;;;12.30;87.88;101496.84;1665052;84;21051;-87
2022/11/02 08:30:52;;;;;;;14.83;12.85;;;;;;;12.31;87.97;101495.97;1661847;85;21113;-88
2022/11/02 08:33:19;;;;;;;16.90;13.75;;;;;;;12.34;87.81;101499.60;1703539;83;21753;-88
2022/11/02 08:35:46;;;;;;;15.38;13.03;;;;;;;12.34;87.73;101495.64;1722033;83;21619;-87
2022/11/02 08:38:13;;;;;;;15.10;12.88;;;;;;;12.36;87.71;101496.58;1722092;82;21579;-87
2022/11/02 08:40:40;;;;;;;17.23;14.20;;;;;;;12.39;87.71;101492.72;1722018;82;21510;-87
2022/11/02 08:43:09;;;;;;;15.32;12.75;;;;;;;12.41;87.69;101496.73;1703656;83;20982;-87
2022/11/02 08:45:37;;;;;;;17.02;13.50;;;;;;;12.44;87.71;101495.08;1722594;83;21739;-87
2022/11/02 08:48:05;;;;;;;15.38;12.60;;;;;;;12.47;87.60;101490.73;1703154;83;21168;-87
2022/11/02 08:50:32;;;;;;;19.65;13.08;;;;;;;12.46;87.51;101491.14;1721639;83;21527;-87
2022/11/02 08:52:59;;;;;;;16.10;13.15;;;;;;;12.48;87.48;101486.83;1721714;83;21034;-87
2022/11/02 08:55:26;;;;;;;19.40;12.43;;;;;;;12.50;87.47;101490.80;1721602;83;21062;-87
2022/11/02 08:57:57;;;;;;;16.00;13.00;;;;;;;12.52;87.46;101485.14;1721620;83;22520;-87
2022/11/02 09:00:29;;;;;;;18.02;12.68;;;;;;;12.56;87.46;101483.08;1717540;82;21065;-87
2022/11/02 09:03:01;;;;;;;18.20;13.32;;;;;;;12.60;87.42;101483.63;1717756;83;20985;-88
2022/11/02 09:05:31;;;;;;;19.42;12.85;;;;;;;12.61;87.30;101479.72;1718025;83;20982;-88
2022/11/02 09:08:03;;;;;;;14.23;11.43;;;;;;;12.65;87.36;101474.11;1717899;83;20998;-87
2022/11/02 09:10:31;;;;;;;16.40;12.20;;;;;;;12.68;87.29;101479.45;1718030;83;21731;-87
2022/11/02 09:13:01;;;;;;;14.07;12.37;;;;;;;12.69;87.15;101479.94;1724914;81;21544;-87
2022/11/02 09:15:28;;;;;;;13.18;11.45;;;;;;;12.73;87.26;101475.20;1726775;79;21589;-87
2022/11/02 09:17:55;;;;;;;17.37;13.80;;;;;;;12.79;87.29;101481.08;1717886;82;21492;-87
2022/11/02 09:20:22;;;;;;;15.78;12.53;;;;;;;12.85;87.29;101485.20;1717965;82;21585;-88
2022/11/02 09:22:49;;;;;;;15.43;12.03;;;;;;;12.90;87.35;101484.02;1717986;82;21701;-88
2022/11/02 09:25:16;;;;;;;14.38;11.38;;;;;;;12.98;87.36;101480.71;1717702;82;21081;-87
2022/11/02 09:27:42;;;;;;;14.18;11.60;;;;;;;13.07;87.27;101484.48;1718021;82;21113;-87
2022/11/02 09:30:10;;;;;;;15.18;10.72;;;;;;;13.13;87.17;101481.55;1718035;83;21042;-87
2022/11/02 09:32:38;;;;;;;19.60;11.88;;;;;;;13.17;86.79;101478.56;1718062;82;21066;-87
2022/11/02 09:35:08;;;;;;;15.45;11.95;;;;;;;13.21;86.66;101473.81;1717751;82;21718;-87
2022/11/02 09:37:35;;;;;;;14.40;10.53;;;;;;;13.28;86.64;101477.52;1752075;80;21058;-87
2022/11/02 09:40:04;;;;;;;11.90;10.35;;;;;;;13.34;86.62;101475.06;1767881;80;21049;-87
2022/11/02 09:42:49;;;;;;;13.90;10.63;;;;;;;13.37;86.34;101478.68;1756746;81;21567;-87
2022/11/02 09:45:17;;;;;;;13.68;9.88;;;;;;;13.39;86.26;101473.44;1765745;80;21192;-87
2022/11/02 09:47:54;;;;;;;11.53;9.15;;;;;;;13.41;85.97;101476.57;1769935;81;21742;-87
2022/11/02 09:50:28;;;;;;;11.57;9.13;;;;;;;13.39;85.74;101474.32;1748369;81;21048;-87
2022/11/02 09:53:01;;;;;;;11.97;10.23;;;;;;;13.39;85.63;101475.64;1769264;80;21040;-87
2022/11/02 09:55:33;;;;;;;15.70;9.88;;;;;;;13.43;85.49;101473.09;1742487;81;21048;-87
2022/11/02 09:58:03;;;;;;;11.33;9.58;;;;;;;13.41;85.26;101476.57;1769380;80;21067;-87
2022/11/02 10:00:31;;;;;;;18.25;9.60;;;;;;;13.40;85.10;101468.59;1768981;80;21809;-87
2022/11/02 10:03:03;;;;;;;10.90;8.40;;;;;;;13.41;85.01;101478.33;1769753;81;21516;-87
2022/11/02 10:05:44;;;;;;;14.70;9.58;;;;;;;13.41;84.99;101475.25;1769918;80;21052;-87
2022/11/02 10:08:25;;;;;;;13.83;10.60;;;;;;;13.42;84.87;101474.84;1754070;80;21839;-87
2022/11/02 10:11:46;;;;;;;15.63;9.58;;;;;;;13.44;84.78;101474.86;1768616;80;21095;-86
2022/11/02 10:14:27;;;;;;;16.27;10.38;;;;;;;13.44;84.79;101470.89;1759610;80;21794;-87
2022/11/02 10:17:17;;;;;;;20.70;10.48;;;;;;;13.44;84.49;101461.63;1753432;80;21636;-87
2022/11/02 10:19:56;;;;;;;16.07;10.10;;;;;;;13.40;84.16;101458.02;1759733;81;21094;-86
2022/11/02 10:22:33;;;;;;;18.05;11.63;;;;;;;13.35;84.18;101447.34;1759485;80;21106;-87
2022/11/02 10:25:01;;;;;;;16.57;11.80;;;;;;;13.44;84.20;101453.30;1759435;81;21074;-87
2022/11/02 10:27:31;;;;;;;18.17;11.95;;;;;;;13.43;83.91;101455.90;1742189;81;21739;-87
2022/11/02 10:30:10;;;;;;;18.80;11.43;;;;;;;13.43;83.77;101461.19;1759413;80;21051;-86
2022/11/02 10:32:39;;;;;;;18.02;11.68;;;;;;;13.41;83.84;101456.73;1760932;81;21105;-87
2022/11/02 10:35:12;;;;;;;20.02;12.30;;;;;;;13.41;83.76;101457.17;1769754;80;21927;-87
2022/11/02 10:37:54;;;;;;;19.17;11.68;;;;;;;13.41;83.84;101454.53;1737966;81;21058;-87
2022/11/02 10:40:51;;;;;;;17.25;12.18;;;;;;;13.44;83.99;101453.30;1769675;80;21747;-87
2022/11/02 10:43:56;;;;;;;20.92;12.33;;;;;;;13.47;83.86;101453.34;1743231;82;21076;-87
2022/11/02 10:46:49;;;;;;;14.38;11.05;;;;;;;13.51;83.96;101448.59;1693629;84;21725;-87
2022/11/02 10:49:40;;;;;;;22.77;13.22;;;;;;;13.62;84.08;101454.15;1760649;80;22172;-86
2022/11/02 10:52:14;;;;;;;20.82;12.53;;;;;;;13.72;84.09;101447.31;1761614;81;21078;-87
2022/11/02 10:54:41;;;;;;;20.48;12.75;;;;;;;13.79;84.03;101445.28;1761580;81;21859;-86
2022/11/02 10:57:12;;;;;;;21.55;13.18;;;;;;;13.85;83.94;101442.80;1761921;81;21051;-87
2022/11/02 10:59:39;;;;;;;22.13;13.53;;;;;;;13.89;83.80;101438.03;1754686;81;21550;-86
2022/11/02 11:02:14;;;;;;;24.23;15.28;;;;;;;13.92;83.60;101437.20;1745413;82;21073;-87
2022/11/02 11:04:41;;;;;;;29.18;16.50;;;;;;;13.93;83.30;101437.67;1745631;82;21081;-87
2022/11/02 11:07:24;;;;;;;26.52;16.20;;;;;;;13.92;83.06;101435.88;1745861;81;21781;-86
2022/11/02 11:09:54;;;;;;;29.25;15.85;;;;;;;13.91;83.06;101435.43;1745912;82;22165;-87
2022/11/02 11:12:32;;;;;;;19.62;15.35;;;;;;;13.95;83.17;101429.34;1758021;81;21091;-86
2022/11/02 11:15:01;;;;;;;22.85;15.10;;;;;;;13.97;83.06;101439.09;1735113;79;20988;-87
2022/11/02 11:17:38;;;;;;;30.70;18.82;;;;;;;13.96;82.81;101440.37;1710491;82;21078;-87
2022/11/02 11:20:07;;;;;;;27.27;17.17;;;;;;;13.93;82.59;101445.62;1710380;82;21820;-87
2022/11/02 11:22:36;;;;;;;28.75;16.97;;;;;;;13.86;82.43;101452.95;1710078;82;21074;-87
2022/11/02 11:25:26;;;;;;;26.77;18.27;;;;;;;13.77;82.27;101456.27;1710311;83;21077;-87
2022/11/02 11:27:58;;;;;;;27.75;17.12;;;;;;;13.72;82.39;101460.55;1710553;83;21161;-86
2022/11/02 11:30:34;;;;;;;24.82;17.02;;;;;;;13.66;82.20;101464.37;1740534;81;21555;-86
2022/11/02 11:33:02;;;;;;;26.25;17.57;;;;;;;13.62;82.24;101456.80;1764121;81;21761;-87
2022/11/02 11:35:34;;;;;;;24.90;17.25;;;;;;;13.58;82.28;101458.47;1770360;80;21069;-86
2022/11/02 11:38:06;;;;;;;25.85;18.32;;;;;;;13.69;82.52;101461.38;1760685;80;21101;-86
2022/11/02 11:40:40;;;;;;;27.70;18.30;;;;;;;13.74;82.29;101457.09;1761682;80;21052;-87
2022/11/02 11:43:13;;;;;;;23.50;16.32;;;;;;;13.84;82.35;101456.87;1762217;81;21087;-87